sensor_id;sensor_type;location;lat;lon;timestamp;pressure;altitude;pressure_sealevel;temperature;humidity
16431;BME280;8325;49.284;7.238;2023-01-09T05:02:47;97297.28;;;5.98;96.21
16431;BME280;8325;49.284;7.238;2023-01-09T05:07:10;97316.41;;;5.97;97.44
16431;BME280;8325;49.284;7.238;2023-01-09T05:11:22;97310.97;;;5.84;99.16
16431;BME280;8325;49.284;7.238;2023-01-09T05:15:34;97326.22;;;5.78;100.00
16431;BME280;8325;49.284;7.238;2023-01-09T05:19:45;97337.06;;;5.82;100.00
16431;BME280;8325;49.284;7.238;2023-01-09T05:23:57;97337.41;;;5.79;100.00
16431;BME280;8325;49.284;7.238;2023-01-09T05:28:08;97333.72;;;5.73;100.00
16431;BME280;8325;49.284;7.238;2023-01-09T05:32:20;97337.28;;;5.72;100.00
16431;BME280;8325;49.284;7.238;2023-01-09T05:36:31;97338.97;;;5.65;100.00
16431;BME280;8325;49.284;7.238;2023-01-09T05:40:43;97351.91;;;5.65;100.00
16431;BME280;8325;49.284;7.238;2023-01-09T05:44:54;97354.34;;;5.67;100.00
16431;BME280;8325;49.284;7.238;2023-01-09T05:49:06;97358.13;;;5.56;100.00
16431;BME280;8325;49.284;7.238;2023-01-09T05:53:17;97354.88;;;5.54;100.00
16431;BME280;8325;49.284;7.238;2023-01-09T05:57:29;97348.75;;;5.55;100.00
16431;BME280;8325;49.284;7.238;2023-01-09T06:01:40;97356.75;;;5.68;100.00
16431;BME280;8325;49.284;7.238;2023-01-09T06:05:52;97362.97;;;5.59;100.00
16431;BME280;8325;49.284;7.238;2023-01-09T06:10:04;97357.63;;;5.61;100.00
16431;BME280;8325;49.284;7.238;2023-01-09T06:14:16;97364.06;;;5.65;100.00
16431;BME280;8325;49.284;7.238;2023-01-09T06:18:27;97364.72;;;5.67;100.00
16431;BME280;8325;49.284;7.238;2023-01-09T06:22:39;97356.44;;;5.63;100.00
16431;BME280;8325;49.284;7.238;2023-01-09T06:26:50;97357.44;;;5.62;100.00
16431;BME280;8325;49.284;7.238;2023-01-09T06:31:02;97360.41;;;5.51;100.00
16431;BME280;8325;49.284;7.238;2023-01-09T06:35:14;97371.75;;;5.50;100.00
16431;BME280;8325;49.284;7.238;2023-01-09T06:39:25;97367.56;;;5.49;100.00
16431;BME280;8325;49.284;7.238;2023-01-09T06:43:37;97361.41;;;5.50;100.00
16431;BME280;8325;49.284;7.238;2023-01-09T06:47:49;97365.25;;;5.54;100.00
16431;BME280;8325;49.284;7.238;2023-01-09T06:52:01;97372.06;;;5.55;100.00
16431;BME280;8325;49.284;7.238;2023-01-09T06:56:16;97374.91;;;5.60;100.00
16431;BME280;8325;49.284;7.238;2023-01-09T07:00:27;97382.75;;;5.52;100.00
16431;BME280;8325;49.284;7.238;2023-01-09T07:04:39;97385.50;;;5.50;100.00
16431;BME280;8325;49.284;7.238;2023-01-09T07:08:51;97388.78;;;5.44;100.00
16431;BME280;8325;49.284;7.238;2023-01-09T07:13:02;97385.50;;;5.50;100.00
16431;BME280;8325;49.284;7.238;2023-01-09T07:17:14;97386.81;;;5.54;100.00
16431;BME280;8325;49.284;7.238;2023-01-09T07:21:25;97389.53;;;5.53;100.00
16431;BME280;8325;49.284;7.238;2023-01-09T07:25:38;97405.88;;;5.53;100.00
16431;BME280;8325;49.284;7.238;2023-01-09T07:29:50;97418.00;;;5.61;100.00
16431;BME280;8325;49.284;7.238;2023-01-09T07:34:03;97407.00;;;5.59;100.00
16431;BME280;8325;49.284;7.238;2023-01-09T07:38:15;97409.63;;;5.51;100.00
16431;BME280;8325;49.284;7.238;2023-01-09T07:42:26;97409.59;;;5.59;100.00
16431;BME280;8325;49.284;7.238;2023-01-09T07:46:38;97412.63;;;5.63;100.00
16431;BME280;8325;49.284;7.238;2023-01-09T07:50:49;97421.22;;;5.63;100.00
16431;BME280;8325;49.284;7.238;2023-01-09T07:55:01;97419.16;;;5.59;100.00
16431;BME280;8325;49.284;7.238;2023-01-09T07:59:13;97405.53;;;5.57;100.00
16431;BME280;8325;49.284;7.238;2023-01-09T08:03:24;97398.75;;;5.56;100.00
16431;BME280;8325;49.284;7.238;2023-01-09T08:07:37;97386.47;;;5.58;100.00
16431;BME280;8325;49.284;7.238;2023-01-09T08:11:48;97404.06;;;5.62;100.00
16431;BME280;8325;49.284;7.238;2023-01-09T08:16:01;97402.13;;;5.64;100.00
16431;BME280;8325;49.284;7.238;2023-01-09T08:20:14;97393.38;;;5.65;100.00
16431;BME280;8325;49.284;7.238;2023-01-09T08:24:26;97413.41;;;5.71;100.00
16431;BME280;8325;49.284;7.238;2023-01-09T08:28:38;97414.66;;;5.75;100.00
16431;BME280;8325;49.284;7.238;2023-01-09T08:32:51;97415.97;;;5.80;100.00
16431;BME280;8325;49.284;7.238;2023-01-09T08:37:03;97420.81;;;5.83;100.00
16431;BME280;8325;49.284;7.238;2023-01-09T08:41:15;97431.09;;;5.91;100.00
16431;BME280;8325;49.284;7.238;2023-01-09T08:45:46;97435.06;;;5.78;100.00
16431;BME280;8325;49.284;7.238;2023-01-09T08:50:16;97443.78;;;5.86;100.00
16431;BME280;8325;49.284;7.238;2023-01-09T08:54:28;97422.41;;;5.84;100.00
16431;BME280;8325;49.284;7.238;2023-01-09T08:58:41;97419.31;;;5.88;100.00
16431;BME280;8325;49.284;7.238;2023-01-09T09:02:56;97417.34;;;5.90;100.00
16431;BME280;8325;49.284;7.238;2023-01-09T09:07:08;97413.03;;;5.83;100.00
16431;BME280;8325;49.284;7.238;2023-01-09T09:11:19;97409.09;;;5.87;100.00
16431;BME280;8325;49.284;7.238;2023-01-09T09:15:31;97411.06;;;5.85;100.00
16431;BME280;8325;49.284;7.238;2023-01-09T09:19:44;97420.06;;;5.97;100.00
16431;BME280;8325;49.284;7.238;2023-01-09T09:23:56;97430.75;;;6.02;100.00
16431;BME280;8325;49.284;7.238;2023-01-09T09:28:08;97431.72;;;6.01;100.00
16431;BME280;8325;49.284;7.238;2023-01-09T09:32:20;97433.88;;;5.97;100.00
16431;BME280;8325;49.284;7.238;2023-01-09T09:36:31;97442.16;;;5.93;100.00
16431;BME280;8325;49.284;7.238;2023-01-09T09:46:01;97455.06;;;6.01;100.00
16431;BME280;8325;49.284;7.238;2023-01-09T09:50:46;97460.88;;;6.03;100.00
16431;BME280;8325;49.284;7.238;2023-01-09T09:55:16;97465.59;;;5.99;100.00
16431;BME280;8325;49.284;7.238;2023-01-09T09:59:32;97449.06;;;6.01;100.00
16431;BME280;8325;49.284;7.238;2023-01-09T10:03:48;97449.88;;;6.01;100.00
16431;BME280;8325;49.284;7.238;2023-01-09T10:08:08;97456.44;;;6.12;100.00
16431;BME280;8325;49.284;7.238;2023-01-09T10:12:28;97451.91;;;6.14;100.00
16431;BME280;8325;49.284;7.238;2023-01-09T10:26:10;97468.22;;;6.22;100.00
16431;BME280;8325;49.284;7.238;2023-01-09T10:30:46;97456.69;;;6.25;100.00
16431;BME280;8325;49.284;7.238;2023-01-09T10:35:21;97463.13;;;6.29;100.00
16431;BME280;8325;49.284;7.238;2023-01-09T10:39:39;97454.31;;;6.38;100.00
16431;BME280;8325;49.284;7.238;2023-01-09T10:43:58;97443.06;;;6.46;100.00
16431;BME280;8325;49.284;7.238;2023-01-09T10:48:19;97443.63;;;6.56;100.00
16431;BME280;8325;49.284;7.238;2023-01-09T10:52:37;97423.59;;;6.65;100.00
16431;BME280;8325;49.284;7.238;2023-01-09T10:56:57;97430.88;;;6.69;100.00
16431;BME280;8325;49.284;7.238;2023-01-09T11:01:10;97426.13;;;6.73;100.00
16431;BME280;8325;49.284;7.238;2023-01-09T11:05:28;97432.56;;;6.77;100.00
16431;BME280;8325;49.284;7.238;2023-01-09T11:09:59;97432.81;;;6.67;100.00
16431;BME280;8325;49.284;7.238;2023-01-09T11:14:25;97434.00;;;6.80;100.00
16431;BME280;8325;49.284;7.238;2023-01-09T11:18:54;97447.63;;;6.82;100.00
16431;BME280;8325;49.284;7.238;2023-01-09T11:27:33;97449.03;;;6.69;100.00
16431;BME280;8325;49.284;7.238;2023-01-09T11:31:53;97450.19;;;6.67;100.00
16431;BME280;8325;49.284;7.238;2023-01-09T11:36:10;97451.66;;;6.84;99.55
16431;BME280;8325;49.284;7.238;2023-01-09T11:40:25;97466.69;;;6.89;98.96
16431;BME280;8325;49.284;7.238;2023-01-09T11:44:37;97466.97;;;6.94;99.61
16431;BME280;8325;49.284;7.238;2023-01-09T11:48:55;97462.06;;;6.99;98.57
16431;BME280;8325;49.284;7.238;2023-01-09T11:53:18;97450.97;;;7.05;98.78
16431;BME280;8325;49.284;7.238;2023-01-09T11:57:30;97456.53;;;7.02;97.58
16431;BME280;8325;49.284;7.238;2023-01-09T12:06:17;97469.94;;;7.06;96.17
16431;BME280;8325;49.284;7.238;2023-01-09T12:15:02;97466.06;;;6.87;95.79
16431;BME280;8325;49.284;7.238;2023-01-09T12:19:38;97476.66;;;7.00;95.42
16431;BME280;8325;49.284;7.238;2023-01-09T12:37:53;97466.19;;;7.23;93.35
16431;BME280;8325;49.284;7.238;2023-01-09T12:55:23;97474.84;;;7.75;89.24
16431;BME280;8325;49.284;7.238;2023-01-09T12:59:46;97477.50;;;7.45;88.69
16431;BME280;8325;49.284;7.238;2023-01-09T13:04:20;97480.78;;;7.54;88.69
16431;BME280;8325;49.284;7.238;2023-01-09T13:08:41;97489.94;;;7.50;87.67
16431;BME280;8325;49.284;7.238;2023-01-09T13:12:56;97487.69;;;7.61;86.75
16431;BME280;8325;49.284;7.238;2023-01-09T13:17:17;97491.59;;;7.72;87.09
16431;BME280;8325;49.284;7.238;2023-01-09T13:21:30;97478.88;;;7.77;82.85
16431;BME280;8325;49.284;7.238;2023-01-09T13:25:48;97491.44;;;7.74;84.30
16431;BME280;8325;49.284;7.238;2023-01-09T13:30:19;97496.63;;;7.59;83.78
16431;BME280;8325;49.284;7.238;2023-01-09T13:34:33;97501.84;;;7.44;85.23
16431;BME280;8325;49.284;7.238;2023-01-09T13:38:48;97506.44;;;7.42;84.27
16431;BME280;8325;49.284;7.238;2023-01-09T13:43:05;97505.16;;;7.38;84.87
16431;BME280;8325;49.284;7.238;2023-01-09T13:47:25;97519.84;;;7.31;85.40
16431;BME280;8325;49.284;7.238;2023-01-09T14:04:36;97571.16;;;6.91;90.09
16431;BME280;8325;49.284;7.238;2023-01-09T14:09:18;97568.28;;;6.86;90.78
16431;BME280;8325;49.284;7.238;2023-01-09T14:13:37;97573.47;;;6.86;91.76
16431;BME280;8325;49.284;7.238;2023-01-09T14:18:27;97581.94;;;6.80;91.80
16431;BME280;8325;49.284;7.238;2023-01-09T14:22:40;97581.59;;;6.83;92.84
16431;BME280;8325;49.284;7.238;2023-01-09T14:36:33;97598.56;;;6.48;95.81
16431;BME280;8325;49.284;7.238;2023-01-09T14:40:52;97624.97;;;6.43;96.93
16431;BME280;8325;49.284;7.238;2023-01-09T14:45:25;97636.38;;;6.34;97.58
16431;BME280;8325;49.284;7.238;2023-01-09T14:54:27;97633.88;;;6.17;97.90
16431;BME280;8325;49.284;7.238;2023-01-09T14:58:40;97627.69;;;6.18;98.61
16431;BME280;8325;49.284;7.238;2023-01-09T15:02:52;97636.66;;;6.08;98.67
16431;BME280;8325;49.284;7.238;2023-01-09T15:07:05;97650.59;;;6.07;98.19
16431;BME280;8325;49.284;7.238;2023-01-09T15:11:17;97659.81;;;6.09;98.44
16431;BME280;8325;49.284;7.238;2023-01-09T15:15:28;97670.22;;;5.93;99.10
16431;BME280;8325;49.284;7.238;2023-01-09T15:19:43;97695.19;;;5.86;99.60
16431;BME280;8325;49.284;7.238;2023-01-09T15:24:12;97703.56;;;5.88;98.46
16431;BME280;8325;49.284;7.238;2023-01-09T15:28:31;97713.00;;;5.81;99.55
16431;BME280;8325;49.284;7.238;2023-01-09T15:32:45;97718.81;;;5.74;100.00
16431;BME280;8325;49.284;7.238;2023-01-09T15:36:59;97720.44;;;5.75;100.00
16431;BME280;8325;49.284;7.238;2023-01-09T15:41:15;97724.63;;;5.85;100.00
16431;BME280;8325;49.284;7.238;2023-01-09T15:45:50;97753.31;;;5.83;100.00
16431;BME280;8325;49.284;7.238;2023-01-09T15:50:04;97761.91;;;5.75;100.00
16431;BME280;8325;49.284;7.238;2023-01-09T15:54:19;97766.13;;;5.68;100.00
16431;BME280;8325;49.284;7.238;2023-01-09T15:58:36;97775.19;;;5.72;100.00
16431;BME280;8325;49.284;7.238;2023-01-09T16:02:47;97789.13;;;5.80;100.00
16431;BME280;8325;49.284;7.238;2023-01-09T16:07:19;97804.34;;;5.74;100.00
16431;BME280;8325;49.284;7.238;2023-01-09T16:11:33;97814.72;;;5.83;100.00
16431;BME280;8325;49.284;7.238;2023-01-09T16:15:46;97824.75;;;5.77;100.00
16431;BME280;8325;49.284;7.238;2023-01-09T16:20:14;97832.19;;;5.81;100.00
16431;BME280;8325;49.284;7.238;2023-01-09T16:24:40;97840.97;;;5.80;100.00
16431;BME280;8325;49.284;7.238;2023-01-09T16:28:52;97848.88;;;5.78;100.00
16431;BME280;8325;49.284;7.238;2023-01-09T16:33:03;97858.78;;;5.83;100.00
16431;BME280;8325;49.284;7.238;2023-01-09T16:37:15;97863.31;;;5.89;100.00
16431;BME280;8325;49.284;7.238;2023-01-09T16:41:28;97860.72;;;5.89;100.00
16431;BME280;8325;49.284;7.238;2023-01-09T16:46:00;97876.56;;;5.77;100.00
16431;BME280;8325;49.284;7.238;2023-01-09T16:50:12;97891.16;;;5.78;100.00
16431;BME280;8325;49.284;7.238;2023-01-09T16:54:24;97905.41;;;5.74;100.00
16431;BME280;8325;49.284;7.238;2023-01-09T16:58:35;97915.09;;;5.72;100.00
16431;BME280;8325;49.284;7.238;2023-01-09T17:02:47;97913.16;;;5.66;100.00
16431;BME280;8325;49.284;7.238;2023-01-09T17:07:00;97921.91;;;5.65;100.00
16431;BME280;8325;49.284;7.238;2023-01-09T17:11:18;97926.09;;;5.66;100.00
16431;BME280;8325;49.284;7.238;2023-01-09T17:15:30;97933.88;;;5.66;100.00
16431;BME280;8325;49.284;7.238;2023-01-09T17:19:43;97933.25;;;5.72;100.00
16431;BME280;8325;49.284;7.238;2023-01-09T17:23:58;97946.19;;;5.64;100.00
16431;BME280;8325;49.284;7.238;2023-01-09T17:28:28;97948.44;;;5.59;100.00
16431;BME280;8325;49.284;7.238;2023-01-09T17:32:42;97955.53;;;5.57;100.00
16431;BME280;8325;49.284;7.238;2023-01-09T17:36:54;97965.94;;;5.65;100.00
16431;BME280;8325;49.284;7.238;2023-01-09T17:41:08;97981.66;;;5.64;100.00
16431;BME280;8325;49.284;7.238;2023-01-09T17:45:21;97969.84;;;5.69;100.00
16431;BME280;8325;49.284;7.238;2023-01-09T17:49:33;97983.16;;;5.74;100.00
16431;BME280;8325;49.284;7.238;2023-01-09T17:53:44;97988.63;;;5.71;100.00
16431;BME280;8325;49.284;7.238;2023-01-09T17:57:56;97982.78;;;5.61;100.00
16431;BME280;8325;49.284;7.238;2023-01-09T18:02:15;97981.31;;;5.59;100.00
16431;BME280;8325;49.284;7.238;2023-01-09T18:06:27;97989.88;;;5.59;100.00
16431;BME280;8325;49.284;7.238;2023-01-09T18:10:39;97994.13;;;5.68;100.00
16431;BME280;8325;49.284;7.238;2023-01-09T18:14:52;98000.44;;;5.66;100.00
16431;BME280;8325;49.284;7.238;2023-01-09T18:19:04;98012.22;;;5.60;100.00
16431;BME280;8325;49.284;7.238;2023-01-09T18:23:15;98013.88;;;5.61;100.00
16431;BME280;8325;49.284;7.238;2023-01-09T18:27:27;98017.59;;;5.59;100.00
16431;BME280;8325;49.284;7.238;2023-01-09T18:31:39;98020.44;;;5.47;100.00
16431;BME280;8325;49.284;7.238;2023-01-09T18:35:50;98030.84;;;5.56;100.00
16431;BME280;8325;49.284;7.238;2023-01-09T18:40:03;98035.22;;;5.55;100.00
16431;BME280;8325;49.284;7.238;2023-01-09T18:44:14;98037.13;;;5.53;100.00
16431;BME280;8325;49.284;7.238;2023-01-09T18:48:28;98048.81;;;5.57;100.00
16431;BME280;8325;49.284;7.238;2023-01-09T18:52:39;98051.88;;;5.52;100.00
16431;BME280;8325;49.284;7.238;2023-01-09T18:56:51;98059.47;;;5.46;100.00
16431;BME280;8325;49.284;7.238;2023-01-09T19:01:02;98063.47;;;5.40;100.00
16431;BME280;8325;49.284;7.238;2023-01-09T19:05:14;98067.16;;;5.38;100.00
16431;BME280;8325;49.284;7.238;2023-01-09T19:09:26;98071.06;;;5.42;100.00
16431;BME280;8325;49.284;7.238;2023-01-09T19:13:38;98078.13;;;5.31;100.00
16431;BME280;8325;49.284;7.238;2023-01-09T19:17:49;98083.19;;;5.33;100.00
16431;BME280;8325;49.284;7.238;2023-01-09T19:22:02;98079.03;;;5.22;100.00
16431;BME280;8325;49.284;7.238;2023-01-09T19:26:22;98094.44;;;5.24;100.00
16431;BME280;8325;49.284;7.238;2023-01-09T19:30:37;98097.06;;;5.32;100.00
16431;BME280;8325;49.284;7.238;2023-01-09T19:34:48;98095.97;;;5.35;100.00
16431;BME280;8325;49.284;7.238;2023-01-09T19:39:01;98109.41;;;5.38;100.00
16431;BME280;8325;49.284;7.238;2023-01-09T19:43:13;98114.38;;;5.31;100.00
16431;BME280;8325;49.284;7.238;2023-01-09T19:47:36;98115.38;;;5.30;100.00
16431;BME280;8325;49.284;7.238;2023-01-09T19:51:47;98113.41;;;5.32;100.00
16431;BME280;8325;49.284;7.238;2023-01-09T19:56:11;98131.41;;;5.34;100.00
16431;BME280;8325;49.284;7.238;2023-01-09T20:00:23;98130.22;;;5.28;100.00
16431;BME280;8325;49.284;7.238;2023-01-09T20:04:34;98133.78;;;5.27;100.00
16431;BME280;8325;49.284;7.238;2023-01-09T20:08:47;98153.59;;;5.37;100.00
16431;BME280;8325;49.284;7.238;2023-01-09T20:12:58;98158.13;;;5.35;100.00
16431;BME280;8325;49.284;7.238;2023-01-09T20:17:10;98175.28;;;5.36;100.00
16431;BME280;8325;49.284;7.238;2023-01-09T20:21:24;98179.22;;;5.40;100.00
16431;BME280;8325;49.284;7.238;2023-01-09T20:25:36;98192.16;;;5.40;100.00
16431;BME280;8325;49.284;7.238;2023-01-09T20:29:48;98197.47;;;5.38;100.00
16431;BME280;8325;49.284;7.238;2023-01-09T20:34:00;98203.13;;;5.34;100.00
16431;BME280;8325;49.284;7.238;2023-01-09T20:38:12;98201.78;;;5.29;100.00
16431;BME280;8325;49.284;7.238;2023-01-09T20:42:24;98203.13;;;5.34;100.00
16431;BME280;8325;49.284;7.238;2023-01-09T20:46:38;98219.47;;;5.34;100.00
16431;BME280;8325;49.284;7.238;2023-01-09T20:50:49;98217.31;;;5.29;100.00
16431;BME280;8325;49.284;7.238;2023-01-09T20:55:01;98227.97;;;5.26;100.00
16431;BME280;8325;49.284;7.238;2023-01-09T20:59:14;98239.97;;;5.27;100.00
16431;BME280;8325;49.284;7.238;2023-01-09T21:03:32;98246.25;;;5.25;100.00
16431;BME280;8325;49.284;7.238;2023-01-09T21:07:44;98246.72;;;5.20;100.00
16431;BME280;8325;49.284;7.238;2023-01-09T21:11:55;98254.03;;;5.25;100.00
16431;BME280;8325;49.284;7.238;2023-01-09T21:16:12;98264.75;;;5.30;100.00
16431;BME280;8325;49.284;7.238;2023-01-09T21:20:24;98267.66;;;5.27;100.00
16431;BME280;8325;49.284;7.238;2023-01-09T21:24:36;98275.53;;;5.25;100.00
16431;BME280;8325;49.284;7.238;2023-01-09T21:28:49;98273.34;;;5.30;100.00
16431;BME280;8325;49.284;7.238;2023-01-09T21:33:00;98283.69;;;5.30;100.00
16431;BME280;8325;49.284;7.238;2023-01-09T21:37:12;98283.53;;;5.32;100.00
16431;BME280;8325;49.284;7.238;2023-01-09T21:41:24;98293.59;;;5.35;100.00
16431;BME280;8325;49.284;7.238;2023-01-09T21:45:55;98308.34;;;5.35;100.00
16431;BME280;8325;49.284;7.238;2023-01-09T21:50:25;98313.38;;;5.36;100.00
16431;BME280;8325;49.284;7.238;2023-01-09T21:54:37;98320.31;;;5.36;100.00
16431;BME280;8325;49.284;7.238;2023-01-09T21:58:49;98336.09;;;5.42;100.00
16431;BME280;8325;49.284;7.238;2023-01-09T22:03:00;98346.31;;;5.44;100.00
16431;BME280;8325;49.284;7.238;2023-01-09T22:07:12;98362.44;;;5.38;100.00
16431;BME280;8325;49.284;7.238;2023-01-09T22:11:24;98367.47;;;5.39;100.00
16431;BME280;8325;49.284;7.238;2023-01-09T22:15:35;98385.50;;;5.31;100.00
16431;BME280;8325;49.284;7.238;2023-01-09T22:19:47;98406.22;;;5.31;100.00
16431;BME280;8325;49.284;7.238;2023-01-09T22:23:58;98411.53;;;5.29;100.00
16431;BME280;8325;49.284;7.238;2023-01-09T22:28:11;98430.63;;;5.28;100.00
